sensor_id;sensor_type;location;lat;lon;timestamp;temperature;humidity
49385;DHT22;36795;45.028;38.968;2022-09-13T00:00:12;20.00;85.90
49385;DHT22;36795;45.028;38.968;2022-09-13T00:02:59;19.90;85.80
49385;DHT22;36795;45.028;38.968;2022-09-13T00:05:44;19.90;85.70
49385;DHT22;36795;45.028;38.968;2022-09-13T00:08:31;19.90;85.60
49385;DHT22;36795;45.028;38.968;2022-09-13T00:11:26;19.90;85.40
49385;DHT22;36795;45.028;38.968;2022-09-13T00:14:12;19.90;85.50
49385;DHT22;36795;45.028;38.968;2022-09-13T00:16:58;19.90;85.60
49385;DHT22;36795;45.028;38.968;2022-09-13T00:19:47;19.90;85.50
49385;DHT22;36795;45.028;38.968;2022-09-13T00:22:32;19.90;85.40
49385;DHT22;36795;45.028;38.968;2022-09-13T00:25:19;19.90;85.30
49385;DHT22;36795;45.028;38.968;2022-09-13T00:28:05;19.80;85.10
49385;DHT22;36795;45.028;38.968;2022-09-13T00:30:52;19.80;85.00
49385;DHT22;36795;45.028;38.968;2022-09-13T00:33:38;19.80;85.60
49385;DHT22;36795;45.028;38.968;2022-09-13T00:36:24;19.90;85.10
49385;DHT22;36795;45.028;38.968;2022-09-13T00:39:11;19.80;84.90
49385;DHT22;36795;45.028;38.968;2022-09-13T00:41:57;19.80;85.00
49385;DHT22;36795;45.028;38.968;2022-09-13T00:50:55;19.70;85.10
49385;DHT22;36795;45.028;38.968;2022-09-13T00:53:45;19.70;85.30
49385;DHT22;36795;45.028;38.968;2022-09-13T00:56:40;19.70;85.20
49385;DHT22;36795;45.028;38.968;2022-09-13T00:59:29;19.70;84.80
49385;DHT22;36795;45.028;38.968;2022-09-13T01:02:15;19.70;84.60
49385;DHT22;36795;45.028;38.968;2022-09-13T01:05:02;19.60;85.00
49385;DHT22;36795;45.028;38.968;2022-09-13T01:07:48;19.60;84.80
49385;DHT22;36795;45.028;38.968;2022-09-13T01:10:35;19.60;84.80
49385;DHT22;36795;45.028;38.968;2022-09-13T01:13:32;19.60;84.70
49385;DHT22;36795;45.028;38.968;2022-09-13T01:16:20;19.60;84.70
49385;DHT22;36795;45.028;38.968;2022-09-13T01:19:06;19.60;84.60
49385;DHT22;36795;45.028;38.968;2022-09-13T01:28:13;19.60;84.20
49385;DHT22;36795;45.028;38.968;2022-09-13T01:37:09;19.50;84.30
49385;DHT22;36795;45.028;38.968;2022-09-13T01:43:08;19.50;84.60
49385;DHT22;36795;45.028;38.968;2022-09-13T01:46:11;19.40;84.60
49385;DHT22;36795;45.028;38.968;2022-09-13T01:52:11;19.30;84.40
49385;DHT22;36795;45.028;38.968;2022-09-13T01:58:38;19.40;84.40
49385;DHT22;36795;45.028;38.968;2022-09-13T02:01:40;19.40;84.30
49385;DHT22;36795;45.028;38.968;2022-09-13T02:04:41;19.40;84.00
49385;DHT22;36795;45.028;38.968;2022-09-13T02:07:36;19.40;83.90
49385;DHT22;36795;45.028;38.968;2022-09-13T02:10:32;19.30;83.60
49385;DHT22;36795;45.028;38.968;2022-09-13T02:13:24;19.30;83.60
49385;DHT22;36795;45.028;38.968;2022-09-13T02:16:19;19.20;83.40
49385;DHT22;36795;45.028;38.968;2022-09-13T02:19:13;19.20;83.50
49385;DHT22;36795;45.028;38.968;2022-09-13T02:22:03;19.20;83.40
49385;DHT22;36795;45.028;38.968;2022-09-13T02:24:54;19.10;83.30
49385;DHT22;36795;45.028;38.968;2022-09-13T02:27:45;19.10;83.50
49385;DHT22;36795;45.028;38.968;2022-09-13T02:30:34;19.10;83.70
49385;DHT22;36795;45.028;38.968;2022-09-13T02:33:43;19.00;83.60
49385;DHT22;36795;45.028;38.968;2022-09-13T02:36:35;19.00;83.70
49385;DHT22;36795;45.028;38.968;2022-09-13T02:39:27;19.00;83.80
49385;DHT22;36795;45.028;38.968;2022-09-13T02:42:20;19.00;83.70
49385;DHT22;36795;45.028;38.968;2022-09-13T02:45:07;19.00;83.90
49385;DHT22;36795;45.028;38.968;2022-09-13T02:47:57;18.90;83.80
49385;DHT22;36795;45.028;38.968;2022-09-13T02:51:12;19.00;83.90
49385;DHT22;36795;45.028;38.968;2022-09-13T02:57:04;19.00;83.90
49385;DHT22;36795;45.028;38.968;2022-09-13T02:59:50;19.00;84.00
49385;DHT22;36795;45.028;38.968;2022-09-13T03:02:38;19.00;83.80
49385;DHT22;36795;45.028;38.968;2022-09-13T03:05:26;19.00;83.90
49385;DHT22;36795;45.028;38.968;2022-09-13T03:08:14;18.90;83.90
49385;DHT22;36795;45.028;38.968;2022-09-13T03:20:54;18.90;84.20
49385;DHT22;36795;45.028;38.968;2022-09-13T03:24:07;18.90;84.10
49385;DHT22;36795;45.028;38.968;2022-09-13T03:30:13;18.80;84.20
49385;DHT22;36795;45.028;38.968;2022-09-13T03:36:11;18.90;84.10
49385;DHT22;36795;45.028;38.968;2022-09-13T03:41:52;18.80;83.90
49385;DHT22;36795;45.028;38.968;2022-09-13T03:44:45;18.80;83.70
49385;DHT22;36795;45.028;38.968;2022-09-13T03:47:35;18.80;83.70
49385;DHT22;36795;45.028;38.968;2022-09-13T03:50:23;18.80;83.80
49385;DHT22;36795;45.028;38.968;2022-09-13T03:53:14;18.90;83.70
49385;DHT22;36795;45.028;38.968;2022-09-13T03:56:14;18.90;83.50
49385;DHT22;36795;45.028;38.968;2022-09-13T03:59:00;19.00;83.40
49385;DHT22;36795;45.028;38.968;2022-09-13T04:01:47;19.00;83.20
49385;DHT22;36795;45.028;38.968;2022-09-13T04:04:33;19.10;83.00
49385;DHT22;36795;45.028;38.968;2022-09-13T04:07:22;19.10;82.90
49385;DHT22;36795;45.028;38.968;2022-09-13T04:10:09;19.20;82.70
49385;DHT22;36795;45.028;38.968;2022-09-13T04:12:55;19.30;82.40
49385;DHT22;36795;45.028;38.968;2022-09-13T04:15:42;19.30;82.20
49385;DHT22;36795;45.028;38.968;2022-09-13T04:18:29;19.40;81.90
49385;DHT22;36795;45.028;38.968;2022-09-13T04:21:15;19.50;81.70
49385;DHT22;36795;45.028;38.968;2022-09-13T04:24:02;19.50;81.70
49385;DHT22;36795;45.028;38.968;2022-09-13T04:26:49;19.60;81.40
49385;DHT22;36795;45.028;38.968;2022-09-13T04:29:35;19.70;81.30
49385;DHT22;36795;45.028;38.968;2022-09-13T04:32:22;19.70;81.10
49385;DHT22;36795;45.028;38.968;2022-09-13T04:35:07;19.80;81.00
49385;DHT22;36795;45.028;38.968;2022-09-13T04:37:55;19.80;81.10
49385;DHT22;36795;45.028;38.968;2022-09-13T04:40:44;19.90;80.90
49385;DHT22;36795;45.028;38.968;2022-09-13T04:43:36;19.90;80.80
49385;DHT22;36795;45.028;38.968;2022-09-13T04:46:22;20.00;80.90
49385;DHT22;36795;45.028;38.968;2022-09-13T04:49:13;20.10;80.40
49385;DHT22;36795;45.028;38.968;2022-09-13T04:52:00;20.00;80.40
49385;DHT22;36795;45.028;38.968;2022-09-13T04:54:47;20.10;80.40
49385;DHT22;36795;45.028;38.968;2022-09-13T04:57:34;20.20;80.30
49385;DHT22;36795;45.028;38.968;2022-09-13T05:00:30;20.30;80.10
49385;DHT22;36795;45.028;38.968;2022-09-13T05:03:16;20.30;80.10
49385;DHT22;36795;45.028;38.968;2022-09-13T05:06:07;20.40;80.20
49385;DHT22;36795;45.028;38.968;2022-09-13T05:08:54;20.50;80.30
49385;DHT22;36795;45.028;38.968;2022-09-13T05:11:41;20.60;80.00
49385;DHT22;36795;45.028;38.968;2022-09-13T05:14:27;20.60;80.20
49385;DHT22;36795;45.028;38.968;2022-09-13T05:17:13;20.70;80.10
49385;DHT22;36795;45.028;38.968;2022-09-13T05:19:59;20.80;79.90
49385;DHT22;36795;45.028;38.968;2022-09-13T05:22:45;20.90;80.00
49385;DHT22;36795;45.028;38.968;2022-09-13T05:25:31;21.00;79.70
49385;DHT22;36795;45.028;38.968;2022-09-13T05:28:18;21.00;79.80
49385;DHT22;36795;45.028;38.968;2022-09-13T05:31:07;21.10;79.60
49385;DHT22;36795;45.028;38.968;2022-09-13T05:33:59;21.20;79.30
49385;DHT22;36795;45.028;38.968;2022-09-13T05:36:45;21.40;79.10
49385;DHT22;36795;45.028;38.968;2022-09-13T05:39:32;21.40;78.60
49385;DHT22;36795;45.028;38.968;2022-09-13T05:42:18;21.50;78.40
49385;DHT22;36795;45.028;38.968;2022-09-13T05:45:04;21.60;78.30
49385;DHT22;36795;45.028;38.968;2022-09-13T05:47:51;21.80;78.20
49385;DHT22;36795;45.028;38.968;2022-09-13T05:50:38;22.00;77.50
49385;DHT22;36795;45.028;38.968;2022-09-13T05:53:24;22.40;77.00
49385;DHT22;36795;45.028;38.968;2022-09-13T05:56:13;22.60;75.20
49385;DHT22;36795;45.028;38.968;2022-09-13T05:59:00;22.80;74.70
49385;DHT22;36795;45.028;38.968;2022-09-13T06:01:46;22.80;74.60
49385;DHT22;36795;45.028;38.968;2022-09-13T06:04:34;22.80;74.40
49385;DHT22;36795;45.028;38.968;2022-09-13T06:07:21;22.70;74.50
49385;DHT22;36795;45.028;38.968;2022-09-13T06:10:08;22.70;74.60
49385;DHT22;36795;45.028;38.968;2022-09-13T06:12:55;22.60;74.80
49385;DHT22;36795;45.028;38.968;2022-09-13T06:15:42;22.60;75.30
49385;DHT22;36795;45.028;38.968;2022-09-13T06:18:28;22.60;74.50
49385;DHT22;36795;45.028;38.968;2022-09-13T06:21:17;22.70;74.60
49385;DHT22;36795;45.028;38.968;2022-09-13T06:24:04;22.80;74.20
49385;DHT22;36795;45.028;38.968;2022-09-13T06:26:50;22.90;73.90
49385;DHT22;36795;45.028;38.968;2022-09-13T06:29:36;22.80;74.00
49385;DHT22;36795;45.028;38.968;2022-09-13T06:32:22;22.80;74.20
49385;DHT22;36795;45.028;38.968;2022-09-13T06:35:08;22.90;74.00
49385;DHT22;36795;45.028;38.968;2022-09-13T06:37:55;23.00;73.20
49385;DHT22;36795;45.028;38.968;2022-09-13T06:41:19;23.00;73.40
49385;DHT22;36795;45.028;38.968;2022-09-13T06:44:05;23.10;72.50
49385;DHT22;36795;45.028;38.968;2022-09-13T06:46:52;23.10;72.50
49385;DHT22;36795;45.028;38.968;2022-09-13T06:49:39;23.00;72.40
49385;DHT22;36795;45.028;38.968;2022-09-13T06:52:25;23.10;72.00
49385;DHT22;36795;45.028;38.968;2022-09-13T06:55:16;23.50;71.40
49385;DHT22;36795;45.028;38.968;2022-09-13T06:58:02;23.60;70.20
49385;DHT22;36795;45.028;38.968;2022-09-13T07:00:48;23.70;70.30
49385;DHT22;36795;45.028;38.968;2022-09-13T07:03:34;23.80;69.80
49385;DHT22;36795;45.028;38.968;2022-09-13T07:06:25;23.80;69.30
49385;DHT22;36795;45.028;38.968;2022-09-13T07:09:14;23.90;69.00
49385;DHT22;36795;45.028;38.968;2022-09-13T07:12:05;24.10;68.30
49385;DHT22;36795;45.028;38.968;2022-09-13T07:14:53;24.20;67.80
49385;DHT22;36795;45.028;38.968;2022-09-13T07:17:40;24.10;66.70
49385;DHT22;36795;45.028;38.968;2022-09-13T07:20:26;24.00;66.30
49385;DHT22;36795;45.028;38.968;2022-09-13T07:23:12;23.90;66.50
49385;DHT22;36795;45.028;38.968;2022-09-13T07:25:59;24.00;66.60
49385;DHT22;36795;45.028;38.968;2022-09-13T07:28:53;23.90;66.70
49385;DHT22;36795;45.028;38.968;2022-09-13T07:31:44;24.10;66.30
49385;DHT22;36795;45.028;38.968;2022-09-13T07:34:32;24.20;66.10
49385;DHT22;36795;45.028;38.968;2022-09-13T07:37:18;24.10;66.70
49385;DHT22;36795;45.028;38.968;2022-09-13T07:40:05;24.70;65.60
49385;DHT22;36795;45.028;38.968;2022-09-13T07:42:51;25.80;61.90
49385;DHT22;36795;45.028;38.968;2022-09-13T07:45:37;26.40;59.30
49385;DHT22;36795;45.028;38.968;2022-09-13T07:48:23;26.30;58.80
49385;DHT22;36795;45.028;38.968;2022-09-13T07:51:13;25.80;59.60
49385;DHT22;36795;45.028;38.968;2022-09-13T07:54:01;25.10;61.00
49385;DHT22;36795;45.028;38.968;2022-09-13T07:56:47;25.20;62.10
49385;DHT22;36795;45.028;38.968;2022-09-13T07:59:34;26.20;60.90
49385;DHT22;36795;45.028;38.968;2022-09-13T08:02:20;27.70;57.40
49385;DHT22;36795;45.028;38.968;2022-09-13T08:05:06;29.60;53.20
49385;DHT22;36795;45.028;38.968;2022-09-13T08:07:52;31.90;48.80
49385;DHT22;36795;45.028;38.968;2022-09-13T08:10:38;34.20;45.70
49385;DHT22;36795;45.028;38.968;2022-09-13T08:13:25;35.40;42.30
49385;DHT22;36795;45.028;38.968;2022-09-13T08:16:11;35.70;41.50
49385;DHT22;36795;45.028;38.968;2022-09-13T08:19:00;34.70;41.60
49385;DHT22;36795;45.028;38.968;2022-09-13T08:21:47;31.80;44.50
49385;DHT22;36795;45.028;38.968;2022-09-13T08:24:33;29.40;48.80
49385;DHT22;36795;45.028;38.968;2022-09-13T08:27:19;28.50;51.50
49385;DHT22;36795;45.028;38.968;2022-09-13T08:30:05;30.40;48.80
49385;DHT22;36795;45.028;38.968;2022-09-13T08:32:52;33.10;44.40
49385;DHT22;36795;45.028;38.968;2022-09-13T08:35:38;35.40;40.60
49385;DHT22;36795;45.028;38.968;2022-09-13T08:38:25;36.40;39.10
49385;DHT22;36795;45.028;38.968;2022-09-13T08:44:35;36.40;38.50
49385;DHT22;36795;45.028;38.968;2022-09-13T08:47:30;33.80;41.30
49385;DHT22;36795;45.028;38.968;2022-09-13T08:50:31;31.70;45.10
49385;DHT22;36795;45.028;38.968;2022-09-13T08:53:25;33.40;42.60
49385;DHT22;36795;45.028;38.968;2022-09-13T08:56:43;36.00;38.80
49385;DHT22;36795;45.028;38.968;2022-09-13T09:06:24;40.70;33.10
49385;DHT22;36795;45.028;38.968;2022-09-13T09:09:16;40.10;33.20
49385;DHT22;36795;45.028;38.968;2022-09-13T09:15:29;35.50;37.30
49385;DHT22;36795;45.028;38.968;2022-09-13T09:18:28;35.10;37.70
49385;DHT22;36795;45.028;38.968;2022-09-13T09:21:16;35.50;36.90
49385;DHT22;36795;45.028;38.968;2022-09-13T09:24:03;34.20;38.30
49385;DHT22;36795;45.028;38.968;2022-09-13T09:26:56;33.70;38.90
49385;DHT22;36795;45.028;38.968;2022-09-13T09:29:44;34.70;37.60
49385;DHT22;36795;45.028;38.968;2022-09-13T09:35:42;36.00;36.10
49385;DHT22;36795;45.028;38.968;2022-09-13T09:38:39;34.20;37.70
49385;DHT22;36795;45.028;38.968;2022-09-13T09:41:29;32.30;39.60
49385;DHT22;36795;45.028;38.968;2022-09-13T09:44:20;32.80;39.50
49385;DHT22;36795;45.028;38.968;2022-09-13T09:47:21;34.10;37.50
49385;DHT22;36795;45.028;38.968;2022-09-13T09:50:21;35.30;36.10
49385;DHT22;36795;45.028;38.968;2022-09-13T09:59:31;35.90;35.30
49385;DHT22;36795;45.028;38.968;2022-09-13T10:02:19;37.00;35.00
49385;DHT22;36795;45.028;38.968;2022-09-13T10:05:06;38.40;32.90
49385;DHT22;36795;45.028;38.968;2022-09-13T10:08:00;39.10;31.70
49385;DHT22;36795;45.028;38.968;2022-09-13T10:10:55;37.70;32.40
49385;DHT22;36795;45.028;38.968;2022-09-13T10:13:57;36.60;33.80
49385;DHT22;36795;45.028;38.968;2022-09-13T10:16:44;36.10;34.00
49385;DHT22;36795;45.028;38.968;2022-09-13T10:19:32;35.20;35.20
49385;DHT22;36795;45.028;38.968;2022-09-13T10:22:18;34.10;36.40
49385;DHT22;36795;45.028;38.968;2022-09-13T10:25:21;33.30;37.10
49385;DHT22;36795;45.028;38.968;2022-09-13T10:28:15;32.30;38.00
49385;DHT22;36795;45.028;38.968;2022-09-13T10:31:10;31.50;39.40
49385;DHT22;36795;45.028;38.968;2022-09-13T10:34:06;31.00;39.80
49385;DHT22;36795;45.028;38.968;2022-09-13T10:37:17;30.80;39.60
49385;DHT22;36795;45.028;38.968;2022-09-13T10:40:31;30.90;40.00
49385;DHT22;36795;45.028;38.968;2022-09-13T10:43:26;31.50;39.80
49385;DHT22;36795;45.028;38.968;2022-09-13T10:46:20;31.20;40.00
49385;DHT22;36795;45.028;38.968;2022-09-13T10:52:43;31.00;40.60
49385;DHT22;36795;45.028;38.968;2022-09-13T10:55:36;31.40;39.60
49385;DHT22;36795;45.028;38.968;2022-09-13T10:58:25;32.20;39.00
49385;DHT22;36795;45.028;38.968;2022-09-13T11:01:33;33.30;37.60
49385;DHT22;36795;45.028;38.968;2022-09-13T11:11:23;37.60;32.40
49385;DHT22;36795;45.028;38.968;2022-09-13T11:26:43;41.50;29.20
49385;DHT22;36795;45.028;38.968;2022-09-13T11:29:53;41.90;28.80
49385;DHT22;36795;45.028;38.968;2022-09-13T11:39:03;35.80;31.30
49385;DHT22;36795;45.028;38.968;2022-09-13T11:42:34;33.80;33.60
49385;DHT22;36795;45.028;38.968;2022-09-13T11:48:26;31.20;37.30
49385;DHT22;36795;45.028;38.968;2022-09-13T11:57:51;29.20;40.60
49385;DHT22;36795;45.028;38.968;2022-09-13T12:00:44;30.00;39.90
49385;DHT22;36795;45.028;38.968;2022-09-13T12:03:57;32.90;36.80
49385;DHT22;36795;45.028;38.968;2022-09-13T12:06:52;34.70;34.40
49385;DHT22;36795;45.028;38.968;2022-09-13T12:09:52;33.40;35.60
49385;DHT22;36795;45.028;38.968;2022-09-13T12:12:42;32.00;37.20
49385;DHT22;36795;45.028;38.968;2022-09-13T12:15:39;30.90;38.50
49385;DHT22;36795;45.028;38.968;2022-09-13T12:18:33;30.30;39.60
49385;DHT22;36795;45.028;38.968;2022-09-13T12:21:35;29.80;40.70
49385;DHT22;36795;45.028;38.968;2022-09-13T12:24:34;29.50;41.20
49385;DHT22;36795;45.028;38.968;2022-09-13T12:27:27;29.70;41.50
49385;DHT22;36795;45.028;38.968;2022-09-13T12:30:21;30.20;41.00
49385;DHT22;36795;45.028;38.968;2022-09-13T12:33:10;29.90;41.50
49385;DHT22;36795;45.028;38.968;2022-09-13T12:57:56;27.10;46.60
49385;DHT22;36795;45.028;38.968;2022-09-13T13:03:58;27.70;45.80
49385;DHT22;36795;45.028;38.968;2022-09-13T13:06:50;28.40;44.80
49385;DHT22;36795;45.028;38.968;2022-09-13T13:09:43;28.40;44.90
49385;DHT22;36795;45.028;38.968;2022-09-13T13:21:27;26.60;47.10
49385;DHT22;36795;45.028;38.968;2022-09-13T13:27:01;26.30;47.80
49385;DHT22;36795;45.028;38.968;2022-09-13T13:30:33;26.20;48.10
49385;DHT22;36795;45.028;38.968;2022-09-13T13:33:28;26.10;48.40
49385;DHT22;36795;45.028;38.968;2022-09-13T13:36:29;26.00;48.70
49385;DHT22;36795;45.028;38.968;2022-09-13T13:45:05;25.60;49.20
49385;DHT22;36795;45.028;38.968;2022-09-13T13:48:09;25.50;49.60
49385;DHT22;36795;45.028;38.968;2022-09-13T13:51:14;25.40;50.20
49385;DHT22;36795;45.028;38.968;2022-09-13T13:54:04;25.40;49.80
49385;DHT22;36795;45.028;38.968;2022-09-13T13:57:30;25.30;49.40
49385;DHT22;36795;45.028;38.968;2022-09-13T14:00:21;25.30;49.00
49385;DHT22;36795;45.028;38.968;2022-09-13T14:06:45;25.20;48.80
49385;DHT22;36795;45.028;38.968;2022-09-13T14:09:54;25.10;48.00
49385;DHT22;36795;45.028;38.968;2022-09-13T14:12:46;25.00;48.20
49385;DHT22;36795;45.028;38.968;2022-09-13T14:21:35;24.70;48.70
49385;DHT22;36795;45.028;38.968;2022-09-13T14:24:23;24.70;48.50
49385;DHT22;36795;45.028;38.968;2022-09-13T14:27:18;24.50;48.30
49385;DHT22;36795;45.028;38.968;2022-09-13T14:33:03;24.40;48.70
49385;DHT22;36795;45.028;38.968;2022-09-13T14:36:07;24.30;48.80
49385;DHT22;36795;45.028;38.968;2022-09-13T14:39:00;24.30;48.80
49385;DHT22;36795;45.028;38.968;2022-09-13T14:41:46;24.20;49.10
49385;DHT22;36795;45.028;38.968;2022-09-13T14:44:32;24.10;49.20
49385;DHT22;36795;45.028;38.968;2022-09-13T14:50:15;24.00;49.80
49385;DHT22;36795;45.028;38.968;2022-09-13T14:53:25;23.90;49.90
49385;DHT22;36795;45.028;38.968;2022-09-13T14:56:24;23.90;50.20
49385;DHT22;36795;45.028;38.968;2022-09-13T15:02:21;23.70;50.70
49385;DHT22;36795;45.028;38.968;2022-09-13T15:05:12;23.60;51.20
49385;DHT22;36795;45.028;38.968;2022-09-13T15:08:27;23.50;51.80
49385;DHT22;36795;45.028;38.968;2022-09-13T15:11:31;23.50;52.00
49385;DHT22;36795;45.028;38.968;2022-09-13T15:14:31;23.40;52.30
49385;DHT22;36795;45.028;38.968;2022-09-13T15:17:19;23.40;52.50
49385;DHT22;36795;45.028;38.968;2022-09-13T15:20:11;23.30;52.90
49385;DHT22;36795;45.028;38.968;2022-09-13T15:22:57;23.20;53.30
49385;DHT22;36795;45.028;38.968;2022-09-13T15:25:56;23.20;53.50
49385;DHT22;36795;45.028;38.968;2022-09-13T15:31:33;23.10;53.80
49385;DHT22;36795;45.028;38.968;2022-09-13T15:34:22;23.10;53.90
49385;DHT22;36795;45.028;38.968;2022-09-13T15:37:13;23.00;54.60
49385;DHT22;36795;45.028;38.968;2022-09-13T15:40:15;23.00;54.10
49385;DHT22;36795;45.028;38.968;2022-09-13T15:43:02;22.90;54.10
49385;DHT22;36795;45.028;38.968;2022-09-13T15:45:49;22.90;54.30
49385;DHT22;36795;45.028;38.968;2022-09-13T15:48:36;22.90;54.30
49385;DHT22;36795;45.028;38.968;2022-09-13T15:51:21;22.90;54.40
49385;DHT22;36795;45.028;38.968;2022-09-13T15:54:12;22.90;54.50
49385;DHT22;36795;45.028;38.968;2022-09-13T15:56:58;22.80;54.80
49385;DHT22;36795;45.028;38.968;2022-09-13T15:59:45;22.70;55.20
49385;DHT22;36795;45.028;38.968;2022-09-13T16:02:32;22.70;55.50
49385;DHT22;36795;45.028;38.968;2022-09-13T16:05:18;22.70;55.80
49385;DHT22;36795;45.028;38.968;2022-09-13T16:08:04;22.70;55.90
49385;DHT22;36795;45.028;38.968;2022-09-13T16:10:51;22.70;56.10
49385;DHT22;36795;45.028;38.968;2022-09-13T16:13:37;22.70;56.30
49385;DHT22;36795;45.028;38.968;2022-09-13T16:16:24;22.60;56.40
49385;DHT22;36795;45.028;38.968;2022-09-13T16:19:15;22.60;56.60
49385;DHT22;36795;45.028;38.968;2022-09-13T16:22:01;22.60;57.00
49385;DHT22;36795;45.028;38.968;2022-09-13T16:24:48;22.60;57.20
49385;DHT22;36795;45.028;38.968;2022-09-13T16:27:34;22.60;57.30
49385;DHT22;36795;45.028;38.968;2022-09-13T16:30:20;22.50;57.40
49385;DHT22;36795;45.028;38.968;2022-09-13T16:33:10;22.60;57.50
49385;DHT22;36795;45.028;38.968;2022-09-13T16:35:56;22.50;57.70
49385;DHT22;36795;45.028;38.968;2022-09-13T16:38:42;22.50;57.90
49385;DHT22;36795;45.028;38.968;2022-09-13T16:41:29;22.40;58.10
49385;DHT22;36795;45.028;38.968;2022-09-13T16:44:15;22.30;58.40
49385;DHT22;36795;45.028;38.968;2022-09-13T16:47:03;22.30;58.50
49385;DHT22;36795;45.028;38.968;2022-09-13T16:49:49;22.30;58.80
49385;DHT22;36795;45.028;38.968;2022-09-13T16:52:37;22.20;58.70
49385;DHT22;36795;45.028;38.968;2022-09-13T16:55:24;22.30;58.60
49385;DHT22;36795;45.028;38.968;2022-09-13T16:58:15;22.20;58.60
49385;DHT22;36795;45.028;38.968;2022-09-13T17:01:05;22.20;58.70
49385;DHT22;36795;45.028;38.968;2022-09-13T17:03:55;22.20;58.80
49385;DHT22;36795;45.028;38.968;2022-09-13T17:06:42;22.20;58.80
49385;DHT22;36795;45.028;38.968;2022-09-13T17:09:29;22.10;58.80
49385;DHT22;36795;45.028;38.968;2022-09-13T17:12:25;22.10;58.80
49385;DHT22;36795;45.028;38.968;2022-09-13T17:15:13;22.00;58.90
49385;DHT22;36795;45.028;38.968;2022-09-13T17:18:01;22.00;59.10
49385;DHT22;36795;45.028;38.968;2022-09-13T17:20:49;21.90;59.30
49385;DHT22;36795;45.028;38.968;2022-09-13T17:23:45;21.90;59.30
49385;DHT22;36795;45.028;38.968;2022-09-13T17:26:31;21.90;59.30
49385;DHT22;36795;45.028;38.968;2022-09-13T17:29:34;21.80;59.30
49385;DHT22;36795;45.028;38.968;2022-09-13T17:32:22;21.80;59.30
49385;DHT22;36795;45.028;38.968;2022-09-13T17:35:08;21.80;59.20
49385;DHT22;36795;45.028;38.968;2022-09-13T17:38:02;21.80;59.30
49385;DHT22;36795;45.028;38.968;2022-09-13T17:44:07;21.90;59.20
49385;DHT22;36795;45.028;38.968;2022-09-13T17:47:29;21.90;59.20
49385;DHT22;36795;45.028;38.968;2022-09-13T17:50:19;21.90;59.30
49385;DHT22;36795;45.028;38.968;2022-09-13T17:53:08;21.90;59.30
49385;DHT22;36795;45.028;38.968;2022-09-13T17:56:01;21.80;59.30
49385;DHT22;36795;45.028;38.968;2022-09-13T17:58:49;21.80;59.30
49385;DHT22;36795;45.028;38.968;2022-09-13T18:01:52;21.90;59.10
49385;DHT22;36795;45.028;38.968;2022-09-13T18:05:09;21.90;58.80
49385;DHT22;36795;45.028;38.968;2022-09-13T18:08:19;21.80;58.80
49385;DHT22;36795;45.028;38.968;2022-09-13T18:11:29;21.90;58.90
49385;DHT22;36795;45.028;38.968;2022-09-13T18:14:18;21.80;59.10
49385;DHT22;36795;45.028;38.968;2022-09-13T18:17:05;21.70;59.40
49385;DHT22;36795;45.028;38.968;2022-09-13T18:20:09;21.70;59.70
49385;DHT22;36795;45.028;38.968;2022-09-13T18:22:56;21.70;59.80
49385;DHT22;36795;45.028;38.968;2022-09-13T18:25:59;21.70;59.80
49385;DHT22;36795;45.028;38.968;2022-09-13T18:29:24;21.70;59.90
49385;DHT22;36795;45.028;38.968;2022-09-13T18:32:44;21.60;60.00
49385;DHT22;36795;45.028;38.968;2022-09-13T18:36:02;21.70;60.10
49385;DHT22;36795;45.028;38.968;2022-09-13T18:38:51;21.60;60.10
49385;DHT22;36795;45.028;38.968;2022-09-13T18:41:40;21.60;60.10
49385;DHT22;36795;45.028;38.968;2022-09-13T18:44:33;21.60;60.10
49385;DHT22;36795;45.028;38.968;2022-09-13T18:47:22;21.60;60.10
49385;DHT22;36795;45.028;38.968;2022-09-13T18:50:10;21.70;60.20
49385;DHT22;36795;45.028;38.968;2022-09-13T18:52:57;21.70;60.30
49385;DHT22;36795;45.028;38.968;2022-09-13T18:55:44;21.60;60.50
49385;DHT22;36795;45.028;38.968;2022-09-13T18:58:31;21.60;60.50
49385;DHT22;36795;45.028;38.968;2022-09-13T19:01:23;21.60;60.80
49385;DHT22;36795;45.028;38.968;2022-09-13T19:04:18;21.50;61.00
49385;DHT22;36795;45.028;38.968;2022-09-13T19:07:08;21.50;61.30
49385;DHT22;36795;45.028;38.968;2022-09-13T19:09:54;21.50;61.50
49385;DHT22;36795;45.028;38.968;2022-09-13T19:12:42;21.50;61.70
49385;DHT22;36795;45.028;38.968;2022-09-13T19:15:29;21.50;61.80
49385;DHT22;36795;45.028;38.968;2022-09-13T19:18:16;21.50;61.80
49385;DHT22;36795;45.028;38.968;2022-09-13T19:21:07;21.50;61.80
49385;DHT22;36795;45.028;38.968;2022-09-13T19:23:55;21.60;62.00
49385;DHT22;36795;45.028;38.968;2022-09-13T19:26:47;21.50;62.20
49385;DHT22;36795;45.028;38.968;2022-09-13T19:29:36;21.50;62.40
49385;DHT22;36795;45.028;38.968;2022-09-13T19:32:21;21.50;62.70
49385;DHT22;36795;45.028;38.968;2022-09-13T19:35:08;21.50;62.90
49385;DHT22;36795;45.028;38.968;2022-09-13T19:37:54;21.50;63.10
49385;DHT22;36795;45.028;38.968;2022-09-13T19:40:41;21.50;63.50
49385;DHT22;36795;45.028;38.968;2022-09-13T19:43:31;21.40;63.90
49385;DHT22;36795;45.028;38.968;2022-09-13T19:46:20;21.40;64.60
49385;DHT22;36795;45.028;38.968;2022-09-13T19:49:14;21.40;64.60
49385;DHT22;36795;45.028;38.968;2022-09-13T19:52:01;21.30;64.70
49385;DHT22;36795;45.028;38.968;2022-09-13T19:54:47;21.30;64.80
49385;DHT22;36795;45.028;38.968;2022-09-13T19:57:34;21.20;64.90
49385;DHT22;36795;45.028;38.968;2022-09-13T20:00:19;21.20;64.70
49385;DHT22;36795;45.028;38.968;2022-09-13T20:03:06;21.20;64.50
49385;DHT22;36795;45.028;38.968;2022-09-13T20:05:52;21.20;64.40
49385;DHT22;36795;45.028;38.968;2022-09-13T20:08:38;21.20;64.40
49385;DHT22;36795;45.028;38.968;2022-09-13T20:11:36;21.20;63.80
49385;DHT22;36795;45.028;38.968;2022-09-13T20:14:37;21.20;63.20
49385;DHT22;36795;45.028;38.968;2022-09-13T20:17:23;21.10;63.20
49385;DHT22;36795;45.028;38.968;2022-09-13T20:20:10;21.20;63.30
49385;DHT22;36795;45.028;38.968;2022-09-13T20:22:56;21.20;63.40
49385;DHT22;36795;45.028;38.968;2022-09-13T20:25:44;21.20;63.90
49385;DHT22;36795;45.028;38.968;2022-09-13T20:28:31;21.10;64.40
49385;DHT22;36795;45.028;38.968;2022-09-13T20:31:17;21.10;64.80
49385;DHT22;36795;45.028;38.968;2022-09-13T20:34:06;21.10;65.10
49385;DHT22;36795;45.028;38.968;2022-09-13T20:36:52;21.00;65.80
49385;DHT22;36795;45.028;38.968;2022-09-13T20:39:38;21.10;66.30
49385;DHT22;36795;45.028;38.968;2022-09-13T20:42:25;21.00;67.00